createdAt,value
2022-11-23T00:01:35.430Z,97733.00
2022-11-23T00:04:05.569Z,97729.81
2022-11-23T00:06:34.965Z,97730.00
2022-11-23T00:09:03.614Z,97728.44
2022-11-23T00:11:32.327Z,97734.03
2022-11-23T00:14:02.469Z,97722.06
2022-11-23T00:16:31.826Z,97735.03
2022-11-23T00:19:01.887Z,97735.03
2022-11-23T00:21:32.390Z,97733.03
2022-11-23T00:24:01.047Z,97730.63
2022-11-23T00:26:29.700Z,97734.81
2022-11-23T00:28:58.358Z,97732.22
2022-11-23T00:31:28.492Z,97721.69
2022-11-23T00:33:57.941Z,97728.25
2022-11-23T00:36:27.582Z,97728.06
2022-11-23T00:38:57.641Z,97728.84
2022-11-23T00:41:28.164Z,97729.06
2022-11-23T00:43:56.791Z,97730.44
2022-11-23T00:46:26.873Z,97730.63
2022-11-23T00:48:58.431Z,97725.88
2022-11-23T00:51:28.832Z,97738.63
2022-11-23T00:53:57.876Z,97731.44
2022-11-23T00:56:26.579Z,97732.22
2022-11-23T00:58:56.643Z,97726.47
2022-11-23T01:01:26.807Z,97727.88
2022-11-23T01:03:58.882Z,97726.28
2022-11-23T01:06:28.959Z,97724.47
2022-11-23T01:08:59.024Z,97724.50
2022-11-23T01:11:29.797Z,97723.88
2022-11-23T01:13:58.846Z,97722.09
2022-11-23T01:16:29.483Z,97741.00
2022-11-23T01:19:00.946Z,97744.38
2022-11-23T01:21:30.764Z,97742.41
2022-11-23T01:23:59.423Z,97736.63
2022-11-23T01:26:28.015Z,97746.97
2022-11-23T01:28:56.635Z,97753.34
2022-11-23T01:31:26.470Z,97746.56
2022-11-23T01:33:55.523Z,97750.56
2022-11-23T01:36:27.662Z,97738.81
2022-11-23T01:38:56.755Z,97747.97
2022-11-23T01:41:26.886Z,97753.94
2022-11-23T01:43:55.621Z,97749.97
2022-11-23T01:46:24.415Z,97747.75
2022-11-23T01:48:55.342Z,97753.34
2022-11-23T01:51:28.565Z,97756.13
2022-11-23T01:54:01.398Z,97760.91
2022-11-23T01:56:32.347Z,97754.53
2022-11-23T01:59:04.091Z,97758.91
2022-11-23T02:01:32.994Z,97760.31
2022-11-23T02:04:02.460Z,97764.91
2022-11-23T02:06:32.918Z,97768.06
2022-11-23T02:09:01.847Z,97760.31
2022-11-23T02:11:30.547Z,97770.06
2022-11-23T02:14:00.207Z,97766.50
2022-11-23T02:16:28.786Z,97767.25
2022-11-23T02:18:57.470Z,97770.84
2022-11-23T02:21:26.065Z,97765.09
2022-11-23T02:24:00.314Z,97758.94
2022-11-23T02:26:31.948Z,97765.50
2022-11-23T02:29:02.830Z,97769.47
2022-11-23T02:31:31.496Z,97762.09
2022-11-23T02:34:00.137Z,97767.09
2022-11-23T02:36:35.820Z,97772.03
2022-11-23T02:39:08.607Z,97778.00
2022-11-23T02:41:40.517Z,97770.63
2022-11-23T02:44:16.471Z,97766.06
2022-11-23T02:46:45.132Z,97778.81
2022-11-23T02:49:13.781Z,97774.81
2022-11-23T02:51:42.436Z,97774.03
2022-11-23T02:54:11.172Z,97772.84
2022-11-23T02:56:41.435Z,97779.97
2022-11-23T02:59:10.321Z,97782.38
2022-11-23T03:01:40.175Z,97779.00
2022-11-23T03:04:09.534Z,97782.78
2022-11-23T03:06:38.494Z,97779.59
2022-11-23T03:09:07.500Z,97779.59
2022-11-23T03:11:36.223Z,97781.97
2022-11-23T03:14:06.178Z,97781.56
2022-11-23T03:16:34.837Z,97785.16
2022-11-23T03:19:03.631Z,97778.22
2022-11-23T03:21:32.201Z,97787.13
2022-11-23T03:24:00.840Z,97779.56
2022-11-23T03:26:29.492Z,97776.59
2022-11-23T03:28:58.066Z,97765.03
2022-11-23T03:31:28.254Z,97775.59
2022-11-23T03:33:56.864Z,97764.06
2022-11-23T03:36:25.435Z,97766.22
2022-11-23T03:38:54.024Z,97756.47
2022-11-23T03:41:22.737Z,97773.19
2022-11-23T03:43:51.307Z,97777.19
2022-11-23T03:46:20.260Z,97779.56
2022-11-23T03:48:50.245Z,97784.72
2022-11-23T03:51:18.868Z,97788.91
2022-11-23T03:53:47.485Z,97774.63
2022-11-23T03:56:16.481Z,97767.81
2022-11-23T03:58:45.099Z,97764.47
2022-11-23T04:01:13.745Z,97764.06
2022-11-23T04:03:42.497Z,97772.44
2022-11-23T04:06:12.431Z,97768.63
2022-11-23T04:08:40.995Z,97770.03
2022-11-23T04:11:09.749Z,97762.25
2022-11-23T04:13:38.397Z,97759.69
2022-11-23T04:16:08.100Z,97763.63
2022-11-23T04:18:36.695Z,97764.03
2022-11-23T04:21:05.450Z,97759.44
2022-11-23T04:23:35.675Z,97759.91
2022-11-23T04:26:04.356Z,97751.31
2022-11-23T04:28:32.938Z,97753.31
2022-11-23T04:31:01.496Z,97756.13
2022-11-23T04:33:31.578Z,97752.72
2022-11-23T04:36:00.214Z,97756.88
2022-11-23T04:38:28.850Z,97759.69
2022-11-23T04:40:58.880Z,97750.94
2022-11-23T04:43:27.521Z,97755.69
2022-11-23T04:45:56.116Z,97746.31
2022-11-23T04:48:24.747Z,97750.13
2022-11-23T04:50:55.750Z,97745.31
2022-11-23T04:53:24.707Z,97750.53
2022-11-23T04:55:53.333Z,97753.91
2022-11-23T04:58:23.316Z,97745.38
2022-11-23T05:00:52.020Z,97746.97
2022-11-23T05:03:20.722Z,97750.53
2022-11-23T05:05:49.288Z,97751.94
2022-11-23T05:08:17.885Z,97746.75
2022-11-23T05:10:46.495Z,97751.31
2022-11-23T05:13:15.154Z,97759.25
2022-11-23T05:15:45.204Z,97760.84
2022-11-23T05:18:13.772Z,97755.09
2022-11-23T05:20:42.478Z,97752.50
2022-11-23T05:23:11.486Z,97750.13
2022-11-23T05:25:40.174Z,97755.69
2022-11-23T05:28:37.975Z,97748.94
2022-11-23T05:30:58.756Z,97740.16
2022-11-23T05:33:27.346Z,97745.34
2022-11-23T05:35:55.952Z,97735.97
2022-11-23T05:38:24.672Z,97741.97
2022-11-23T05:40:53.347Z,97741.38
2022-11-23T05:43:21.976Z,97740.16
2022-11-23T05:45:50.816Z,97733.19
2022-11-23T05:48:20.923Z,97740.94
2022-11-23T05:50:51.208Z,97735.00
2022-11-23T05:53:19.921Z,97740.16
2022-11-23T05:55:48.545Z,97737.81
2022-11-23T05:58:17.136Z,97733.81
2022-11-23T06:00:45.820Z,97737.59
2022-11-23T06:03:14.696Z,97730.63
2022-11-23T06:05:44.687Z,97737.78
2022-11-23T06:08:13.306Z,97740.38
2022-11-23T06:10:41.919Z,97727.03
2022-11-23T06:13:10.495Z,97735.22
2022-11-23T06:15:39.089Z,97734.81
2022-11-23T06:18:07.669Z,97733.63
2022-11-23T06:20:36.346Z,97730.63
2022-11-23T06:23:06.270Z,97734.41
2022-11-23T06:25:34.975Z,97731.81
2022-11-23T06:28:03.609Z,97739.38
2022-11-23T06:30:32.282Z,97744.56
2022-11-23T06:33:03.575Z,97741.59
2022-11-23T06:35:32.180Z,97744.19
2022-11-23T06:38:00.777Z,97736.19
2022-11-23T06:40:31.219Z,97736.59
2022-11-23T06:43:00.758Z,97748.16
2022-11-23T06:45:29.371Z,97739.78
2022-11-23T06:47:58.190Z,97757.28
2022-11-23T06:50:26.821Z,97749.56
2022-11-23T06:52:57.056Z,97759.88
2022-11-23T06:55:26.561Z,97762.25
2022-11-23T06:57:57.712Z,97765.19
2022-11-23T07:00:26.412Z,97766.22
2022-11-23T07:02:56.378Z,97768.72
2022-11-23T07:05:25.480Z,97773.31
2022-11-23T07:07:54.427Z,97773.31
2022-11-23T07:10:23.081Z,97774.91
2022-11-23T07:12:51.666Z,97781.47
2022-11-23T07:15:21.629Z,97781.06
2022-11-23T07:17:50.220Z,97785.44
2022-11-23T07:20:19.103Z,97781.66
2022-11-23T07:22:47.731Z,97786.25
2022-11-23T07:25:18.912Z,97784.03
2022-11-23T07:27:47.578Z,97788.00
2022-11-23T07:30:17.177Z,97790.16
2022-11-23T07:32:47.146Z,97786.78
2022-11-23T07:35:16.005Z,97781.19
2022-11-23T07:37:44.637Z,97795.13
2022-11-23T07:40:13.625Z,97791.34
2022-11-23T07:42:45.066Z,97791.72
2022-11-23T07:45:14.114Z,97797.13
2022-11-23T07:47:42.769Z,97801.03
2022-11-23T07:50:14.006Z,97806.00
2022-11-23T07:52:42.658Z,97795.69
2022-11-23T07:55:11.441Z,97800.66
2022-11-23T07:57:40.123Z,97803.22
2022-11-23T08:00:10.659Z,97806.25
2022-11-23T08:02:52.787Z,97799.31
2022-11-23T08:05:29.885Z,97801.75
2022-11-23T08:07:59.817Z,97804.16
2022-11-23T08:10:28.915Z,97802.16
2022-11-23T08:12:58.621Z,97798.19
2022-11-23T08:15:28.624Z,97808.94
2022-11-23T08:17:57.282Z,97805.97
2022-11-23T08:20:26.085Z,97804.19
2022-11-23T08:22:56.550Z,97802.41
2022-11-23T08:25:26.157Z,97799.84
2022-11-23T08:27:58.421Z,97803.63
2022-11-23T08:30:27.985Z,97809.03
2022-11-23T08:32:56.699Z,97807.03
2022-11-23T08:35:25.602Z,97803.06
2022-11-23T08:37:54.248Z,97795.13
2022-11-23T08:40:25.885Z,97794.34
2022-11-23T08:42:55.354Z,97798.72
2022-11-23T08:45:24.144Z,97798.13
2022-11-23T08:47:53.004Z,97792.75
2022-11-23T08:50:22.541Z,97784.59
2022-11-23T08:52:55.977Z,97789.97
2022-11-23T08:55:26.217Z,97793.16
2022-11-23T08:57:56.466Z,97798.75
2022-11-23T09:00:25.702Z,97797.72
2022-11-23T09:02:54.620Z,97780.00
2022-11-23T09:05:23.249Z,97800.13
2022-11-23T09:07:52.072Z,97794.13
2022-11-23T09:10:20.819Z,97797.94
2022-11-23T09:12:50.866Z,97802.69
2022-11-23T09:15:19.770Z,97794.13
2022-11-23T09:17:48.556Z,97794.50
2022-11-23T09:20:17.338Z,97794.72
2022-11-23T09:22:51.716Z,97798.69
2022-11-23T09:25:21.232Z,97800.06
2022-11-23T09:27:57.144Z,97791.72
2022-11-23T09:30:26.057Z,97791.88
2022-11-23T09:32:56.274Z,97796.84
2022-11-23T09:35:25.301Z,97796.03
2022-11-23T09:37:57.305Z,97797.03
2022-11-23T09:40:27.147Z,97789.84
2022-11-23T09:43:08.003Z,97789.03
2022-11-23T09:45:44.089Z,97787.59
2022-11-23T09:48:40.080Z,97788.00
2022-11-23T09:51:15.028Z,97779.38
2022-11-23T09:53:46.988Z,97790.53
2022-11-23T09:56:18.864Z,97785.75
2022-11-23T09:58:52.283Z,97781.75
2022-11-23T10:01:21.424Z,97779.72
2022-11-23T10:03:50.349Z,97781.63
2022-11-23T10:06:23.824Z,97778.09
2022-11-23T10:09:13.548Z,97771.81
2022-11-23T10:11:52.558Z,97779.16
2022-11-23T10:14:35.218Z,97772.78
2022-11-23T10:17:10.145Z,97764.84
2022-11-23T10:19:49.505Z,97767.66
2022-11-23T10:22:23.484Z,97765.03
2022-11-23T10:24:53.633Z,97760.19
2022-11-23T10:27:23.591Z,97752.31
2022-11-23T10:29:56.393Z,97747.91
2022-11-23T10:32:30.182Z,97752.84
2022-11-23T10:35:04.301Z,97748.66
2022-11-23T10:37:33.476Z,97748.97
2022-11-23T10:40:02.211Z,97750.38
2022-11-23T10:42:33.486Z,97745.34
2022-11-23T10:45:05.189Z,97755.06
2022-11-23T10:47:39.824Z,97751.25
2022-11-23T10:50:30.083Z,97746.13
2022-11-23T10:53:01.092Z,97749.84
2022-11-23T10:55:31.639Z,97751.91
2022-11-23T10:58:01.159Z,97746.88
2022-11-23T11:00:31.775Z,97746.94
2022-11-23T11:03:02.350Z,97736.47
2022-11-23T11:08:29.052Z,97736.00
2022-11-23T11:11:03.156Z,97735.69
2022-11-23T11:13:43.146Z,97733.94
2022-11-23T11:16:21.028Z,97733.41
2022-11-23T11:18:49.838Z,97727.22
2022-11-23T11:21:21.380Z,97726.66
2022-11-23T11:23:54.040Z,97717.72
2022-11-23T11:26:24.071Z,97719.44
2022-11-23T11:28:54.074Z,97707.91
2022-11-23T11:31:34.720Z,97712.56
2022-11-23T11:34:10.355Z,97712.66
2022-11-23T11:36:42.401Z,97712.31
2022-11-23T11:39:18.687Z,97706.19
2022-11-23T11:41:50.239Z,97704.16
2022-11-23T11:44:21.478Z,97702.13
2022-11-23T11:46:55.840Z,97697.56
2022-11-23T11:49:26.465Z,97691.91
2022-11-23T11:51:58.770Z,97690.13
2022-11-23T11:54:32.494Z,97687.38
2022-11-23T11:57:03.588Z,97677.50
2022-11-23T11:59:34.589Z,97687.38
2022-11-23T12:02:18.429Z,97685.66
2022-11-23T12:04:55.282Z,97667.41
2022-11-23T12:07:29.521Z,97681.22
2022-11-23T12:10:03.598Z,97676.66
2022-11-23T12:12:33.180Z,97673.09
2022-11-23T12:15:01.863Z,97664.88
2022-11-23T12:17:42.921Z,97658.50
2022-11-23T12:20:20.290Z,97658.22
2022-11-23T12:22:57.546Z,97656.63
2022-11-23T12:25:33.159Z,97653.06
2022-11-23T12:28:24.750Z,97656.78
2022-11-23T12:31:01.512Z,97651.34
2022-11-23T12:36:32.141Z,97659.16
2022-11-23T12:39:06.071Z,97649.94
2022-11-23T12:41:40.319Z,97647.38
2022-11-23T12:44:38.542Z,97653.84
2022-11-23T12:47:13.745Z,97653.69
2022-11-23T12:49:46.017Z,97641.66
2022-11-23T12:52:28.527Z,97650.22
2022-11-23T12:55:04.109Z,97643.25
2022-11-23T12:57:36.975Z,97641.44
2022-11-23T13:00:08.086Z,97635.34
2022-11-23T13:03:11.146Z,97640.09
2022-11-23T13:06:09.651Z,97628.31
2022-11-23T13:09:17.296Z,97629.41
2022-11-23T13:11:59.938Z,97624.72
2022-11-23T13:14:33.971Z,97628.50
2022-11-23T13:17:12.757Z,97616.47
2022-11-23T13:19:57.810Z,97622.31
2022-11-23T13:22:28.724Z,97628.66
2022-11-23T13:25:04.245Z,97630.72
2022-11-23T13:27:43.853Z,97618.94
2022-11-23T13:31:07.702Z,97618.34
2022-11-23T13:33:31.594Z,97615.25
2022-11-23T13:36:09.490Z,97620.06
2022-11-23T13:38:44.363Z,97608.06
2022-11-23T13:41:55.526Z,97611.56
2022-11-23T13:44:26.817Z,97607.13
2022-11-23T13:47:02.810Z,97596.34
2022-11-23T13:49:38.969Z,97593.13
2022-11-23T13:52:21.459Z,97587.22
2022-11-23T13:54:57.185Z,97582.06
2022-11-23T13:57:25.953Z,97585.94
2022-11-23T13:59:54.719Z,97565.50
2022-11-23T14:02:28.192Z,97574.88
2022-11-23T14:05:45.935Z,97566.69
2022-11-23T14:08:14.862Z,97573.09
2022-11-23T14:10:45.054Z,97566.78
2022-11-23T14:13:19.205Z,97567.50
2022-11-23T14:15:55.313Z,97557.31
2022-11-23T14:18:47.137Z,97554.84
2022-11-23T14:21:20.262Z,97556.34
2022-11-23T14:24:21.077Z,97552.88
2022-11-23T14:27:30.755Z,97553.34
2022-11-23T14:30:18.045Z,97549.41
2022-11-23T14:32:56.573Z,97548.06
2022-11-23T14:35:33.551Z,97549.09
2022-11-23T14:38:22.160Z,97543.47
2022-11-23T14:40:59.140Z,97546.50
2022-11-23T14:43:29.937Z,97545.84
2022-11-23T14:46:02.249Z,97548.38
2022-11-23T14:48:33.008Z,97543.41
2022-11-23T14:51:04.071Z,97544.09
2022-11-23T14:53:36.613Z,97551.34
2022-11-23T14:56:05.732Z,97543.22
2022-11-23T14:58:35.833Z,97539.28
2022-11-23T15:01:04.756Z,97537.38
2022-11-23T15:03:50.026Z,97543.28
2022-11-23T15:06:22.741Z,97531.94
2022-11-23T15:08:55.968Z,97532.09
2022-11-23T15:11:27.457Z,97529.63
2022-11-23T15:14:03.181Z,97530.09
2022-11-23T15:16:39.937Z,97521.63
2022-11-23T15:19:19.099Z,97523.13
2022-11-23T15:21:49.306Z,97519.94
2022-11-23T15:24:25.071Z,97529.59
2022-11-23T15:26:54.174Z,97531.88
2022-11-23T15:29:34.868Z,97528.16
2022-11-23T15:34:55.819Z,97529.78
2022-11-23T15:37:25.251Z,97537.25
2022-11-23T15:39:55.181Z,97530.97
2022-11-23T15:42:26.091Z,97530.06
2022-11-23T15:44:56.697Z,97525.09
2022-11-23T15:47:28.302Z,97532.22
2022-11-23T15:50:01.522Z,97532.31
2022-11-23T15:52:32.944Z,97526.22
2022-11-23T15:55:09.202Z,97533.25
2022-11-23T15:57:39.421Z,97527.59
2022-11-23T16:00:22.943Z,97537.09
2022-11-23T16:02:52.167Z,97530.44
2022-11-23T16:05:23.333Z,97531.34
2022-11-23T16:07:57.380Z,97535.41
2022-11-23T16:10:27.582Z,97541.97
2022-11-23T16:12:57.277Z,97550.00
2022-11-23T16:15:44.342Z,97564.16
2022-11-23T16:18:22.703Z,97555.06
2022-11-23T16:20:55.029Z,97557.13
2022-11-23T16:23:25.712Z,97566.84
2022-11-23T16:25:56.568Z,97562.56
2022-11-23T16:28:28.810Z,97581.81
2022-11-23T16:30:59.447Z,97577.28
2022-11-23T16:33:28.580Z,97573.75
2022-11-23T16:35:57.382Z,97576.69
2022-11-23T16:38:26.944Z,97581.00
2022-11-23T16:40:56.431Z,97584.84
2022-11-23T16:43:25.262Z,97592.41
2022-11-23T16:45:55.439Z,97602.28
2022-11-23T16:48:41.345Z,97608.50
2022-11-23T16:51:14.155Z,97602.50
2022-11-23T16:54:11.872Z,97614.50
2022-11-23T16:56:33.208Z,97624.47
2022-11-23T16:59:02.046Z,97644.72
2022-11-23T17:01:32.521Z,97643.69
2022-11-23T17:04:02.720Z,97652.06
2022-11-23T17:06:31.429Z,97664.53
2022-11-23T17:09:06.366Z,97665.44
2022-11-23T17:11:38.957Z,97665.53
2022-11-23T17:14:07.799Z,97663.94
2022-11-23T17:16:36.590Z,97688.59
2022-11-23T17:19:07.243Z,97699.13
2022-11-23T17:21:35.871Z,97705.41
2022-11-23T17:24:04.961Z,97712.91
2022-11-23T17:26:35.581Z,97711.16
2022-11-23T17:29:06.171Z,97709.38
2022-11-23T17:31:35.159Z,97705.97
2022-11-23T17:34:03.862Z,97711.59
2022-11-23T17:36:33.962Z,97715.66
2022-11-23T17:39:02.784Z,97717.69
2022-11-23T17:41:31.497Z,97722.19
2022-11-23T17:44:00.267Z,97723.44
2022-11-23T17:46:31.522Z,97738.69
2022-11-23T17:49:02.415Z,97739.09
2022-11-23T17:51:31.319Z,97738.53
2022-11-23T17:54:01.369Z,97750.41
2022-11-23T17:56:30.419Z,97750.06
2022-11-23T17:58:59.160Z,97763.16
2022-11-23T18:01:29.161Z,97763.63
2022-11-23T18:04:00.898Z,97769.59
2022-11-23T18:06:29.663Z,97774.91
2022-11-23T18:08:58.509Z,97770.13
2022-11-23T18:11:28.694Z,97780.53
2022-11-23T18:13:57.491Z,97767.81
2022-11-23T18:16:26.219Z,97784.69
2022-11-23T18:18:55.174Z,97788.53
2022-11-23T18:21:23.852Z,97788.97
2022-11-23T18:23:52.459Z,97782.59
2022-11-23T18:26:22.913Z,97791.06
2022-11-23T18:28:53.241Z,97789.53
2022-11-23T18:31:22.391Z,97792.75
2022-11-23T18:33:51.241Z,97797.97
2022-11-23T18:36:19.998Z,97805.19
2022-11-23T18:38:48.886Z,97809.19
2022-11-23T18:41:18.236Z,97801.59
2022-11-23T18:43:47.315Z,97811.78
2022-11-23T18:46:19.402Z,97815.41
2022-11-23T18:48:48.982Z,97815.81
2022-11-23T18:51:18.241Z,97820.50
2022-11-23T18:53:47.918Z,97819.28
2022-11-23T18:56:16.997Z,97826.84
2022-11-23T18:58:46.203Z,97824.03
2022-11-23T19:01:18.087Z,97832.41
2022-11-23T19:03:48.201Z,97826.63
2022-11-23T19:06:18.320Z,97829.22
2022-11-23T19:08:48.255Z,97841.00
2022-11-23T19:11:21.793Z,97849.19
2022-11-23T19:13:52.434Z,97836.84
2022-11-23T19:16:24.694Z,97849.41
2022-11-23T19:18:57.301Z,97858.03
2022-11-23T19:21:27.644Z,97859.59
2022-11-23T19:23:57.683Z,97858.03
2022-11-23T19:26:27.390Z,97862.19
2022-11-23T19:28:57.469Z,97864.22
2022-11-23T19:31:28.731Z,97861.47
2022-11-23T19:34:00.609Z,97882.03
2022-11-23T19:36:31.482Z,97889.41
2022-11-23T19:39:01.158Z,97886.41
2022-11-23T19:41:31.050Z,97893.38
2022-11-23T19:44:00.864Z,97889.00
2022-11-23T19:46:32.245Z,97894.97
2022-11-23T19:49:00.985Z,97908.75
2022-11-23T19:51:29.841Z,97902.41
2022-11-23T19:54:00.889Z,97910.00
2022-11-23T19:56:30.735Z,97911.00
2022-11-23T19:59:00.826Z,97922.56
2022-11-23T20:01:32.549Z,97921.56
2022-11-23T20:04:08.650Z,97913.22
2022-11-23T20:06:39.370Z,97935.13
2022-11-23T20:09:09.694Z,97940.31
2022-11-23T20:11:40.009Z,97925.97
2022-11-23T20:14:09.040Z,97944.94
2022-11-23T20:16:39.489Z,97957.88
2022-11-23T20:19:09.481Z,97965.31
2022-11-23T20:21:38.981Z,97965.88
2022-11-23T20:24:10.047Z,97970.66
2022-11-23T20:26:38.930Z,97977.03
2022-11-23T20:29:08.492Z,97979.41
2022-11-23T20:31:39.180Z,97994.78
2022-11-23T20:34:10.657Z,97998.41
2022-11-23T20:36:42.052Z,98005.38
2022-11-23T20:39:11.998Z,98014.16
2022-11-23T20:41:40.899Z,98025.75
2022-11-23T20:44:12.465Z,98027.75
2022-11-23T20:47:01.416Z,98034.53
2022-11-23T20:49:31.648Z,98039.72
2022-11-23T20:52:00.467Z,98049.72
2022-11-23T20:54:29.123Z,98055.50
2022-11-23T20:56:59.900Z,98059.72
2022-11-23T20:59:28.977Z,98058.09
2022-11-23T21:01:59.100Z,98070.69
2022-11-23T21:04:27.898Z,98080.50
2022-11-23T21:06:56.596Z,98087.91
2022-11-23T21:09:25.245Z,98096.31
2022-11-23T21:12:11.559Z,98095.91
2022-11-23T21:14:40.177Z,98102.09
2022-11-23T21:17:10.219Z,98105.50
2022-11-23T21:19:40.770Z,98115.69
2022-11-23T21:22:11.064Z,98119.66
2022-11-23T21:24:40.319Z,98125.47
2022-11-23T21:27:12.989Z,98123.72
2022-11-23T21:29:44.023Z,98124.50
2022-11-23T21:32:15.152Z,98124.31
2022-11-23T21:34:44.055Z,98127.16
2022-11-23T21:37:13.497Z,98140.53
2022-11-23T21:39:43.205Z,98142.59
2022-11-23T21:42:14.188Z,98149.38
2022-11-23T21:44:42.841Z,98145.97
2022-11-23T21:47:11.547Z,98153.19
2022-11-23T21:49:41.604Z,98156.22
2022-11-23T21:52:10.329Z,98163.41
2022-11-23T21:54:39.039Z,98160.63
2022-11-23T21:57:09.035Z,98171.03
2022-11-23T21:59:38.529Z,98180.59
2022-11-23T22:02:07.556Z,98192.19
2022-11-23T22:04:38.062Z,98195.00
2022-11-23T22:07:08.170Z,98205.75
2022-11-23T22:09:37.980Z,98202.16
2022-11-23T22:12:06.787Z,98213.75
2022-11-23T22:14:35.788Z,98216.16
2022-11-23T22:17:04.684Z,98221.75
2022-11-23T22:19:33.368Z,98220.56
2022-11-23T22:22:02.095Z,98226.59
2022-11-23T22:24:32.485Z,98225.78
2022-11-23T22:27:01.330Z,98234.75
2022-11-23T22:29:30.073Z,98222.34
2022-11-23T22:31:58.786Z,98231.38
2022-11-23T22:34:29.716Z,98240.75
2022-11-23T22:36:58.424Z,98245.34
2022-11-23T22:39:27.044Z,98247.94
2022-11-23T22:41:57.069Z,98251.34
2022-11-23T22:44:25.932Z,98257.75
2022-11-23T22:46:54.702Z,98252.13
2022-11-23T22:49:23.297Z,98253.31
2022-11-23T22:51:51.916Z,98268.53
2022-11-23T22:54:20.572Z,98266.16
2022-11-23T22:56:49.162Z,98259.81
2022-11-23T22:59:19.125Z,98278.19
2022-11-23T23:01:47.756Z,98277.59
2022-11-23T23:04:16.379Z,98286.16
2022-11-23T23:06:45.064Z,98276.75
2022-11-23T23:09:13.964Z,98285.16
2022-11-23T23:11:42.582Z,98287.38
2022-11-23T23:14:11.225Z,98289.19
2022-11-23T23:16:41.352Z,98294.56
2022-11-23T23:19:11.464Z,98303.94
2022-11-23T23:21:40.703Z,98301.56
2022-11-23T23:24:10.805Z,98305.34
2022-11-23T23:26:39.592Z,98306.78
2022-11-23T23:29:08.240Z,98316.38
2022-11-23T23:31:37.503Z,98316.97
2022-11-23T23:34:07.599Z,98326.38
2022-11-23T23:36:36.773Z,98321.53
2022-11-23T23:39:05.927Z,98330.50
2022-11-23T23:41:34.669Z,98333.09
2022-11-23T23:44:03.374Z,98330.31
2022-11-23T23:46:32.022Z,98326.91
2022-11-23T23:49:01.618Z,98329.91
2022-11-23T23:51:31.551Z,98334.69
2022-11-23T23:54:00.141Z,98327.72
2022-11-23T23:56:30.205Z,98337.50
2022-11-23T23:59:00.150Z,98327.72
